Terminal Aerodrome Forecast
Issued by NWS Charleston, WV

Current Version | Previous Version | Graphics & Text | Print | Product List | Glossary On
Versions: 1 2 3 4 5 6 7 8 9 10 11 12 13 14 15 16 17 18 19
402
FTUS41 KRLX 080326 AAA
TAFHTS
TAF AMD
KHTS 080326Z 0803/0824 22003KT P6SM SKC
     FM081100 20005KT 3SM -RASN OVC025
     FM081200 20005KT 2SM -RASN OVC015
     FM081500 23005KT 3SM -RA OVC015
     FM081800 25006KT 6SM -RA OVC015=

USA.gov is the U.S. government's official web portal to all federal, state and local government web resources and services.